ASA1461 ESGG-EDDB
Flight info
| Callsign | ASA1461 |
|---|---|
| Flight time | N/A |
| Altitude | 33000 |
| Route | TOPLA L996 ATRIB DCT SALLO DCT USEDU Z14 BEKBA T280 KETAP |
| Aircraft | B738/M-SDE2E3FGHIRWXY/LB1 |
Departure
| Time | 2026-05-07 16:40 |
|---|---|
| Airport | Göteborg Landvetter Airport (ESGG) |
Arrival
| Time | N/A |
|---|---|
| Airport | Berlin Brandenburg Airport (EDDB) |
| Time | Latitude | Longitude | Altitude | Speed | Heading |
|---|---|---|---|---|---|
| 2026-05-07 16:10 | 57.67180 | 12.29636 | 514 ft | 0 kts | 116° |
| 2026-05-07 16:32 | 57.67184 | 12.29622 | 514 ft | 2 kts | 116° |
| 2026-05-07 16:33 | 57.67191 | 12.29597 | 513 ft | 2 kts | 116° |
| 2026-05-07 16:33 | 57.67197 | 12.29574 | 513 ft | 0 kts | 116° |
| 2026-05-07 16:33 | 57.67200 | 12.29558 | 513 ft | 1 kts | 82° |
| 2026-05-07 16:33 | 57.67194 | 12.29538 | 512 ft | 0 kts | 31° |
| 2026-05-07 16:34 | 57.67189 | 12.29534 | 512 ft | 1 kts | 22° |
| 2026-05-07 16:34 | 57.67186 | 12.29532 | 512 ft | 0 kts | 25° |
| 2026-05-07 16:36 | 57.67202 | 12.29543 | 512 ft | 5 kts | 11° |
| 2026-05-07 16:37 | 57.67238 | 12.29448 | 510 ft | 14 kts | 285° |
| 2026-05-07 16:37 | 57.67339 | 12.29439 | 510 ft | 16 kts | 22° |
| 2026-05-07 16:37 | 57.67424 | 12.29420 | 510 ft | 13 kts | 307° |
| 2026-05-07 16:37 | 57.67458 | 12.29274 | 508 ft | 6 kts | 274° |
| 2026-05-07 16:38 | 57.67458 | 12.29268 | 508 ft | 0 kts | 273° |
| 2026-05-07 16:38 | 57.67458 | 12.29265 | 508 ft | 2 kts | 272° |
| 2026-05-07 16:38 | 57.67458 | 12.29171 | 508 ft | 12 kts | 266° |
| 2026-05-07 16:38 | 57.67430 | 12.29028 | 508 ft | 10 kts | 222° |
| 2026-05-07 16:39 | 57.67412 | 12.29007 | 508 ft | 0 kts | 206° |
| 2026-05-07 16:40 | 57.67287 | 12.28891 | 508 ft | 64 kts | 207° |
| 2026-05-07 16:40 | 57.66573 | 12.28233 | 518 ft | 157 kts | 209° |
| 2026-05-07 16:40 | 57.65471 | 12.27334 | 1204 ft | 190 kts | 206° |
| 2026-05-07 16:41 | 57.64180 | 12.26568 | 2217 ft | 210 kts | 190° |
| 2026-05-07 16:41 | 57.62720 | 12.26522 | 3146 ft | 218 kts | 186° |
| 2026-05-07 16:41 | 57.61244 | 12.25664 | 3792 ft | 232 kts | 214° |
| 2026-05-07 16:41 | 57.59880 | 12.24155 | 4743 ft | 237 kts | 206° |
| 2026-05-07 16:42 | 57.58252 | 12.23371 | 5693 ft | 248 kts | 191° |
| 2026-05-07 16:42 | 57.56571 | 12.22935 | 6779 ft | 254 kts | 191° |
| 2026-05-07 16:42 | 57.54766 | 12.22810 | 7718 ft | 270 kts | 177° |
| 2026-05-07 16:42 | 57.52927 | 12.23317 | 8833 ft | 275 kts | 174° |
| 2026-05-07 16:43 | 57.51049 | 12.23845 | 9921 ft | 279 kts | 175° |
| 2026-05-07 16:43 | 57.49095 | 12.24365 | 10764 ft | 293 kts | 175° |
| 2026-05-07 16:43 | 57.47020 | 12.24921 | 11190 ft | 318 kts | 174° |
| 2026-05-07 16:43 | 57.44768 | 12.25531 | 11870 ft | 334 kts | 174° |
| 2026-05-07 16:44 | 57.42441 | 12.26162 | 12700 ft | 343 kts | 174° |
| 2026-05-07 16:44 | 57.40096 | 12.26796 | 13589 ft | 349 kts | 174° |
| 2026-05-07 16:44 | 57.37695 | 12.27444 | 14476 ft | 354 kts | 174° |
| 2026-05-07 16:44 | 57.35234 | 12.28106 | 15349 ft | 359 kts | 174° |
| 2026-05-07 16:45 | 57.32776 | 12.28767 | 16180 ft | 363 kts | 175° |
| 2026-05-07 16:45 | 57.30268 | 12.29440 | 16987 ft | 367 kts | 175° |
| 2026-05-07 16:45 | 57.27747 | 12.30115 | 17762 ft | 372 kts | 175° |
| 2026-05-07 16:45 | 57.25184 | 12.30801 | 18512 ft | 376 kts | 175° |
| 2026-05-07 16:46 | 57.22608 | 12.31489 | 19233 ft | 380 kts | 175° |
| 2026-05-07 16:46 | 57.19978 | 12.32190 | 19936 ft | 384 kts | 175° |
| 2026-05-07 16:46 | 57.17332 | 12.32895 | 20610 ft | 388 kts | 175° |
| 2026-05-07 16:46 | 57.14668 | 12.33603 | 21261 ft | 392 kts | 175° |
| 2026-05-07 16:47 | 57.11971 | 12.34309 | 21887 ft | 395 kts | 175° |
| 2026-05-07 16:47 | 57.09264 | 12.34982 | 22477 ft | 399 kts | 176° |
| 2026-05-07 16:47 | 57.06498 | 12.35661 | 23045 ft | 404 kts | 176° |
| 2026-05-07 16:47 | 57.03723 | 12.36347 | 23586 ft | 408 kts | 176° |
| 2026-05-07 16:48 | 57.00893 | 12.37049 | 24110 ft | 412 kts | 176° |
| 2026-05-07 16:48 | 56.98060 | 12.37749 | 24604 ft | 416 kts | 176° |
| 2026-05-07 16:48 | 56.95195 | 12.38456 | 25081 ft | 421 kts | 176° |
| 2026-05-07 16:48 | 56.92286 | 12.39174 | 25574 ft | 424 kts | 176° |
| 2026-05-07 16:49 | 56.89347 | 12.39898 | 26042 ft | 428 kts | 176° |
| 2026-05-07 16:49 | 56.86398 | 12.40623 | 26489 ft | 431 kts | 176° |
| 2026-05-07 16:49 | 56.83425 | 12.41353 | 26937 ft | 435 kts | 176° |
| 2026-05-07 16:49 | 56.80455 | 12.42081 | 27391 ft | 437 kts | 176° |
| 2026-05-07 16:50 | 56.77446 | 12.42818 | 27812 ft | 440 kts | 176° |
| 2026-05-07 16:50 | 56.74401 | 12.43562 | 28221 ft | 443 kts | 176° |
| 2026-05-07 16:50 | 56.71339 | 12.44309 | 28611 ft | 446 kts | 176° |
| 2026-05-07 16:50 | 56.68280 | 12.45055 | 28986 ft | 450 kts | 176° |
| 2026-05-07 16:51 | 56.65179 | 12.45809 | 29349 ft | 453 kts | 176° |
| 2026-05-07 16:51 | 56.62077 | 12.46562 | 29704 ft | 455 kts | 176° |
| 2026-05-07 16:51 | 56.58907 | 12.47331 | 30114 ft | 457 kts | 176° |
| 2026-05-07 16:51 | 56.55814 | 12.48083 | 30674 ft | 454 kts | 176° |
| 2026-05-07 16:52 | 56.52702 | 12.48837 | 31140 ft | 453 kts | 177° |
| 2026-05-07 16:52 | 56.49572 | 12.49592 | 31614 ft | 453 kts | 177° |
| 2026-05-07 16:52 | 56.46491 | 12.50335 | 32064 ft | 452 kts | 176° |
| 2026-05-07 16:52 | 56.43381 | 12.51248 | 32502 ft | 455 kts | 173° |
| 2026-05-07 16:53 | 56.40332 | 12.52721 | 32936 ft | 458 kts | 167° |
| 2026-05-07 16:53 | 56.37325 | 12.54523 | 33106 ft | 460 kts | 166° |
| 2026-05-07 16:53 | 56.34283 | 12.56348 | 33106 ft | 461 kts | 166° |
| 2026-05-07 16:54 | 56.28193 | 12.59918 | 33101 ft | 459 kts | 166° |
| 2026-05-07 16:54 | 56.22182 | 12.63475 | 33101 ft | 458 kts | 166° |
| 2026-05-07 16:55 | 56.16125 | 12.67063 | 33101 ft | 458 kts | 167° |
| 2026-05-07 16:55 | 56.10099 | 12.70629 | 33102 ft | 458 kts | 167° |
| 2026-05-07 16:56 | 56.04073 | 12.74188 | 33101 ft | 458 kts | 167° |
| 2026-05-07 16:56 | 55.95057 | 12.79498 | 33106 ft | 458 kts | 167° |
| 2026-05-07 16:57 | 55.89013 | 12.83044 | 33110 ft | 458 kts | 167° |
| 2026-05-07 16:57 | 55.82967 | 12.86581 | 33112 ft | 459 kts | 167° |
| 2026-05-07 16:58 | 55.76951 | 12.90089 | 33116 ft | 458 kts | 167° |
| 2026-05-07 16:58 | 55.70905 | 12.93603 | 33122 ft | 458 kts | 167° |
| 2026-05-07 16:59 | 55.64869 | 12.97100 | 33127 ft | 458 kts | 167° |
| 2026-05-07 16:59 | 55.58823 | 13.00591 | 33123 ft | 458 kts | 167° |
| 2026-05-07 17:00 | 55.52779 | 13.04070 | 33119 ft | 457 kts | 167° |
| 2026-05-07 17:00 | 55.46787 | 13.07508 | 33115 ft | 456 kts | 167° |
| 2026-05-07 17:01 | 55.40773 | 13.10947 | 33112 ft | 455 kts | 167° |
| 2026-05-07 17:01 | 55.34763 | 13.14373 | 33108 ft | 454 kts | 167° |
| 2026-05-07 17:02 | 55.28790 | 13.17767 | 33104 ft | 454 kts | 167° |
| 2026-05-07 17:02 | 55.22826 | 13.21145 | 33101 ft | 453 kts | 167° |
| 2026-05-07 17:03 | 55.16853 | 13.24517 | 33101 ft | 453 kts | 167° |
| 2026-05-07 17:03 | 55.10886 | 13.27876 | 33101 ft | 453 kts | 167° |
| 2026-05-07 17:04 | 55.04908 | 13.31229 | 33101 ft | 453 kts | 167° |
| 2026-05-07 17:04 | 54.98885 | 13.34596 | 33101 ft | 458 kts | 167° |
| 2026-05-07 17:05 | 54.92795 | 13.37986 | 33101 ft | 467 kts | 167° |
| 2026-05-07 17:05 | 54.86594 | 13.41646 | 33102 ft | 477 kts | 164° |
| 2026-05-07 17:06 | 54.80372 | 13.45550 | 33100 ft | 476 kts | 165° |
| 2026-05-07 17:06 | 54.74171 | 13.49359 | 33101 ft | 474 kts | 165° |
| 2026-05-07 17:07 | 54.67968 | 13.53156 | 33101 ft | 475 kts | 165° |
| 2026-05-07 17:07 | 54.61768 | 13.56936 | 33101 ft | 475 kts | 165° |
| 2026-05-07 17:08 | 54.55544 | 13.60717 | 33101 ft | 475 kts | 165° |
| 2026-05-07 17:08 | 54.49319 | 13.64486 | 33101 ft | 475 kts | 165° |
| 2026-05-07 17:09 | 54.43109 | 13.68232 | 33101 ft | 474 kts | 166° |
| 2026-05-07 17:09 | 54.36917 | 13.71955 | 33101 ft | 474 kts | 166° |
| 2026-05-07 17:10 | 54.30727 | 13.75664 | 33101 ft | 474 kts | 166° |
| 2026-05-07 17:10 | 54.24529 | 13.79367 | 33101 ft | 475 kts | 166° |
| 2026-05-07 17:11 | 54.18306 | 13.83073 | 33101 ft | 475 kts | 166° |
| 2026-05-07 17:11 | 54.12075 | 13.86771 | 33101 ft | 474 kts | 166° |
| 2026-05-07 17:12 | 54.05889 | 13.90431 | 33101 ft | 474 kts | 166° |
| 2026-05-07 17:12 | 53.99671 | 13.94064 | 33100 ft | 473 kts | 168° |
| 2026-05-07 17:13 | 53.93341 | 13.96099 | 33101 ft | 462 kts | 183° |
| 2026-05-07 17:13 | 53.87011 | 13.95506 | 33101 ft | 456 kts | 191° |
| 2026-05-07 17:14 | 53.80671 | 13.94727 | 33101 ft | 457 kts | 189° |
| 2026-05-07 17:14 | 53.74362 | 13.93977 | 33101 ft | 456 kts | 190° |
| 2026-05-07 17:15 | 53.68055 | 13.93197 | 33101 ft | 457 kts | 190° |
| 2026-05-07 17:15 | 53.61853 | 13.91922 | 33100 ft | 449 kts | 199° |
| 2026-05-07 17:16 | 53.55917 | 13.88992 | 33101 ft | 445 kts | 203° |
| 2026-05-07 17:16 | 53.49995 | 13.86030 | 33101 ft | 446 kts | 202° |
| 2026-05-07 17:17 | 53.44041 | 13.83044 | 33101 ft | 446 kts | 202° |
| 2026-05-07 17:17 | 53.38146 | 13.80069 | 33101 ft | 446 kts | 202° |
| 2026-05-07 17:18 | 53.32232 | 13.77088 | 33101 ft | 446 kts | 202° |
| 2026-05-07 17:18 | 53.26291 | 13.74096 | 33100 ft | 446 kts | 202° |
| 2026-05-07 17:19 | 53.20387 | 13.71129 | 33091 ft | 446 kts | 202° |
| 2026-05-07 17:19 | 53.14402 | 13.68322 | 33080 ft | 450 kts | 198° |
| 2026-05-07 17:20 | 53.08162 | 13.67165 | 33074 ft | 460 kts | 190° |
| 2026-05-07 17:20 | 53.01756 | 13.66371 | 33068 ft | 460 kts | 200° |
| 2026-05-07 17:21 | 52.98733 | 13.64892 | 33080 ft | 449 kts | 212° |
| 2026-05-07 17:21 | 52.95879 | 13.62961 | 33074 ft | 448 kts | 217° |
| 2026-05-07 17:21 | 52.93174 | 13.60558 | 33070 ft | 434 kts | 227° |
| 2026-05-07 17:21 | 52.91025 | 13.57277 | 33080 ft | 411 kts | 242° |
| 2026-05-07 17:22 | 52.87637 | 13.49840 | 33073 ft | 398 kts | 250° |
| 2026-05-07 17:22 | 52.84988 | 13.41919 | 33073 ft | 394 kts | 252° |
| 2026-05-07 17:23 | 52.82313 | 13.34011 | 33074 ft | 395 kts | 251° |
| 2026-05-07 17:23 | 52.79624 | 13.26040 | 33073 ft | 396 kts | 251° |
| 2026-05-07 17:24 | 52.76968 | 13.18179 | 32579 ft | 392 kts | 251° |
| 2026-05-07 17:24 | 52.75649 | 13.14296 | 31966 ft | 384 kts | 250° |
| 2026-05-07 17:24 | 52.74363 | 13.10507 | 31404 ft | 376 kts | 250° |
| 2026-05-07 17:25 | 52.73095 | 13.06776 | 30953 ft | 365 kts | 249° |
| 2026-05-07 17:25 | 52.72289 | 13.04404 | 30647 ft | 358 kts | 249° |
| 2026-05-07 17:25 | 52.70708 | 12.99756 | 30100 ft | 344 kts | 248° |
| 2026-05-07 17:25 | 52.69932 | 12.97474 | 29806 ft | 338 kts | 248° |
| 2026-05-07 17:26 | 52.68805 | 12.94161 | 29349 ft | 330 kts | 247° |
| 2026-05-07 17:26 | 52.67323 | 12.89810 | 28718 ft | 321 kts | 247° |
| 2026-05-07 17:26 | 52.66249 | 12.86666 | 28238 ft | 315 kts | 246° |
| 2026-05-07 17:26 | 52.65132 | 12.83627 | 27760 ft | 313 kts | 240° |
| 2026-05-07 17:27 | 52.63605 | 12.81002 | 27106 ft | 325 kts | 225° |
| 2026-05-07 17:27 | 52.61546 | 12.79320 | 26559 ft | 339 kts | 208° |
| 2026-05-07 17:27 | 52.59252 | 12.78540 | 26020 ft | 349 kts | 195° |
| 2026-05-07 17:27 | 52.56776 | 12.78875 | 25441 ft | 371 kts | 175° |
| 2026-05-07 17:28 | 52.54440 | 12.80813 | 24901 ft | 391 kts | 154° |
| 2026-05-07 17:28 | 52.52280 | 12.83581 | 24258 ft | 392 kts | 152° |
| 2026-05-07 17:28 | 52.50136 | 12.86235 | 23545 ft | 389 kts | 154° |
| 2026-05-07 17:28 | 52.47944 | 12.88836 | 22863 ft | 386 kts | 154° |
| 2026-05-07 17:29 | 52.45788 | 12.91413 | 22250 ft | 382 kts | 153° |
| 2026-05-07 17:29 | 52.43695 | 12.93936 | 21692 ft | 377 kts | 153° |
| 2026-05-07 17:29 | 52.41586 | 12.96470 | 21010 ft | 374 kts | 153° |
| 2026-05-07 17:29 | 52.39376 | 12.98692 | 19632 ft | 381 kts | 161° |
| 2026-05-07 17:30 | 52.36988 | 13.00352 | 18409 ft | 382 kts | 167° |
| 2026-05-07 17:30 | 52.34462 | 13.01473 | 17470 ft | 372 kts | 175° |
| 2026-05-07 17:30 | 52.31953 | 13.01897 | 16910 ft | 352 kts | 187° |
| 2026-05-07 17:30 | 52.29658 | 13.00967 | 16669 ft | 341 kts | 208° |
| 2026-05-07 17:31 | 52.27607 | 12.99062 | 16429 ft | 341 kts | 213° |
| 2026-05-07 17:31 | 52.25755 | 12.96722 | 16162 ft | 339 kts | 227° |
| 2026-05-07 17:31 | 52.24565 | 12.93413 | 15918 ft | 343 kts | 248° |
| 2026-05-07 17:31 | 52.23924 | 12.89666 | 15678 ft | 345 kts | 253° |
| 2026-05-07 17:32 | 52.23684 | 12.85731 | 15407 ft | 353 kts | 270° |
| 2026-05-07 17:32 | 52.24321 | 12.81865 | 15181 ft | 363 kts | 287° |
| 2026-05-07 17:32 | 52.25299 | 12.78054 | 14927 ft | 364 kts | 288° |
| 2026-05-07 17:32 | 52.25873 | 12.75503 | 14750 ft | 358 kts | 279° |
| 2026-05-07 17:33 | 52.25974 | 12.70270 | 14164 ft | 343 kts | 257° |
| 2026-05-07 17:33 | 52.25440 | 12.66470 | 13166 ft | 341 kts | 250° |
| 2026-05-07 17:33 | 52.24548 | 12.62992 | 12273 ft | 336 kts | 234° |
| 2026-05-07 17:33 | 52.22890 | 12.60419 | 11512 ft | 326 kts | 207° |
| 2026-05-07 17:34 | 52.20798 | 12.59508 | 11092 ft | 312 kts | 183° |
| 2026-05-07 17:34 | 52.18689 | 12.59585 | 10815 ft | 296 kts | 179° |
| 2026-05-07 17:34 | 52.16707 | 12.60015 | 10683 ft | 282 kts | 165° |
| 2026-05-07 17:34 | 52.14979 | 12.61573 | 10550 ft | 288 kts | 141° |
| 2026-05-07 17:35 | 52.13660 | 12.63922 | 10411 ft | 274 kts | 134° |
| 2026-05-07 17:35 | 52.12644 | 12.66442 | 10260 ft | 267 kts | 117° |
| 2026-05-07 17:35 | 52.12241 | 12.69391 | 9994 ft | 266 kts | 99° |
| 2026-05-07 17:35 | 52.12208 | 12.72411 | 9639 ft | 275 kts | 90° |
| 2026-05-07 17:36 | 52.12693 | 12.75444 | 9280 ft | 279 kts | 68° |
| 2026-05-07 17:36 | 52.13704 | 12.78048 | 8939 ft | 279 kts | 56° |
| 2026-05-07 17:36 | 52.15084 | 12.80240 | 8578 ft | 280 kts | 34° |
| 2026-05-07 17:36 | 52.16769 | 12.81845 | 8217 ft | 285 kts | 35° |
| 2026-05-07 17:37 | 52.18259 | 12.83912 | 7845 ft | 280 kts | 50° |
| 2026-05-07 17:37 | 52.19445 | 12.86341 | 7479 ft | 275 kts | 59° |
| 2026-05-07 17:37 | 52.20384 | 12.89029 | 7122 ft | 270 kts | 67° |
| 2026-05-07 17:37 | 52.21172 | 12.91763 | 6785 ft | 266 kts | 69° |
| 2026-05-07 17:38 | 52.21902 | 12.94513 | 6449 ft | 262 kts | 70° |
| 2026-05-07 17:38 | 52.22587 | 12.97215 | 6120 ft | 259 kts | 71° |
| 2026-05-07 17:38 | 52.23267 | 12.99963 | 5744 ft | 264 kts | 71° |
| 2026-05-07 17:38 | 52.23948 | 13.02741 | 5369 ft | 262 kts | 70° |
| 2026-05-07 17:39 | 52.24613 | 13.05469 | 5035 ft | 259 kts | 70° |
| 2026-05-07 17:39 | 52.25269 | 13.08168 | 4706 ft | 256 kts | 70° |
| 2026-05-07 17:39 | 52.25918 | 13.10848 | 4449 ft | 250 kts | 70° |
| 2026-05-07 17:39 | 52.26547 | 13.13450 | 4299 ft | 239 kts | 70° |
| 2026-05-07 17:40 | 52.27149 | 13.15945 | 4049 ft | 235 kts | 70° |
| 2026-05-07 17:40 | 52.27736 | 13.18381 | 3802 ft | 231 kts | 70° |
| 2026-05-07 17:40 | 52.28326 | 13.20834 | 3536 ft | 228 kts | 70° |
| 2026-05-07 17:40 | 52.28889 | 13.23149 | 3433 ft | 210 kts | 67° |
| 2026-05-07 17:41 | 52.29737 | 13.24954 | 3308 ft | 197 kts | 33° |
| 2026-05-07 17:41 | 52.30957 | 13.25790 | 3216 ft | 187 kts | 21° |
| 2026-05-07 17:41 | 52.32020 | 13.26973 | 2947 ft | 187 kts | 55° |
| 2026-05-07 17:41 | 52.32438 | 13.28898 | 2733 ft | 178 kts | 85° |
| 2026-05-07 17:42 | 52.32651 | 13.30844 | 2469 ft | 174 kts | 75° |
| 2026-05-07 17:42 | 52.33030 | 13.32718 | 2218 ft | 174 kts | 72° |
| 2026-05-07 17:42 | 52.33456 | 13.34582 | 1977 ft | 174 kts | 70° |